Time;durP1;ratioP1;P1;durP2;ratioP2;P2;SDS_P1;SDS_P2;PMS_P1;PMS_P2;Temp;Humidity;BMP_temperature;BMP_pressure;BME280_temperature;BME280_humidity;BME280_pressure;Samples;Min_cycle;Max_cycle;Signal;HPM_P1;HPM_P2
2024/04/09 00:02:07;;;;;;;;;;;;;;;20.65;31.57;98306.88;5490921;26;1059;-76
2024/04/09 00:04:33;;;;;;;;;;;;;;;20.91;31.16;98304.38;5421382;26;967;-77
2024/04/09 00:06:58;;;;;;;;;;;;;;;20.85;31.35;98286.31;5421283;26;1849;-76
2024/04/09 00:09:29;;;;;;;;;;;;;;;20.94;31.14;98290.19;5421880;26;924;-77
2024/04/09 00:11:55;;;;;;;;;;;;;;;20.53;31.65;98296.19;5394081;26;950;-77
2024/04/09 00:14:20;;;;;;;;;;;;;;;20.22;31.89;98296.25;5421504;26;992;-76
2024/04/09 00:16:47;;;;;;;;;;;;;;;20.27;31.64;98289.34;5451146;26;1168;-76
2024/04/09 00:19:14;;;;;;;;;;;;;;;20.48;31.07;98286.16;5451351;26;972;-76
2024/04/09 00:21:39;;;;;;;;;;;;;;;20.57;31.08;98294.06;5379826;26;972;-76
2024/04/09 00:24:06;;;;;;;;;;;;;;;20.25;31.74;98295.38;5350675;26;1385;-76
2024/04/09 00:26:31;;;;;;;;;;;;;;;20.70;31.00;98275.25;5379870;26;1858;-76
2024/04/09 00:28:57;;;;;;;;;;;;;;;20.57;31.39;98277.09;5381687;26;1179;-76
2024/04/09 00:31:24;;;;;;;;;;;;;;;20.88;31.27;98279.78;5383230;26;988;-76
2024/04/09 00:33:51;;;;;;;;;;;;;;;20.60;31.80;98276.25;5383208;26;962;-76
2024/04/09 00:36:17;;;;;;;;;;;;;;;20.85;31.08;98275.00;5440584;26;1237;-77
2024/04/09 00:38:46;;;;;;;;;;;;;;;20.92;31.26;98269.19;5454774;26;985;-76
2024/04/09 00:41:15;;;;;;;;;;;;;;;20.72;31.18;98260.69;5424533;26;981;-76
2024/04/09 00:43:41;;;;;;;;;;;;;;;20.60;31.30;98264.94;5454491;26;954;-76
2024/04/09 00:46:07;;;;;;;;;;;;;;;20.52;31.26;98263.47;5454395;26;1017;-76
2024/04/09 00:48:35;;;;;;;;;;;;;;;19.84;32.40;98269.41;5418684;26;1866;-76
2024/04/09 00:51:01;;;;;;;;;;;;;;;20.60;31.18;98264.94;5389096;26;1245;-76
2024/04/09 00:53:26;;;;;;;;;;;;;;;20.40;31.36;98266.91;5417648;26;1011;-76
2024/04/09 00:55:52;;;;;;;;;;;;;;;20.48;31.44;98263.56;5454386;26;968;-76
2024/04/09 00:58:18;;;;;;;;;;;;;;;20.22;31.61;98268.00;5454393;26;996;-76
2024/04/09 01:00:43;;;;;;;;;;;;;;;20.47;31.55;98264.00;5394601;26;1137;-76
2024/04/09 01:03:09;;;;;;;;;;;;;;;20.65;31.29;98261.63;5424165;26;921;-76
2024/04/09 01:05:35;;;;;;;;;;;;;;;20.88;30.90;98259.97;5454047;26;954;-76
2024/04/09 01:08:01;;;;;;;;;;;;;;;20.81;31.19;98256.06;5424267;26;1850;-76
2024/04/09 01:10:26;;;;;;;;;;;;;;;20.89;30.99;98258.78;5424121;26;975;-77
2024/04/09 01:12:52;;;;;;;;;;;;;;;20.79;31.00;98260.56;5453882;26;1528;-76
2024/04/09 01:15:18;;;;;;;;;;;;;;;20.29;31.63;98262.22;5454197;26;985;-76
2024/04/09 01:17:43;;;;;;;;;;;;;;;20.09;31.95;98272.66;5454016;26;1090;-76
2024/04/09 01:20:12;;;;;;;;;;;;;;;20.57;30.81;98276.31;5394621;26;1084;-76
2024/04/09 01:22:38;;;;;;;;;;;;;;;20.34;31.07;98271.44;5424233;26;988;-76
2024/04/09 01:25:04;;;;;;;;;;;;;;;20.25;31.33;98272.78;5398626;26;1101;-76
2024/04/09 01:27:33;;;;;;;;;;;;;;;20.36;31.35;98271.81;5431359;26;1841;-76
2024/04/09 01:30:00;;;;;;;;;;;;;;;20.65;31.08;98272.94;5493562;26;913;-77
2024/04/09 01:32:26;;;;;;;;;;;;;;;20.73;30.75;98263.09;5491761;26;1003;-77
2024/04/09 01:34:52;;;;;;;;;;;;;;;20.62;31.14;98262.47;5461306;26;1226;-77
2024/04/09 01:37:17;;;;;;;;;;;;;;;20.63;30.87;98264.09;5491953;26;966;-77
2024/04/09 01:39:45;;;;;;;;;;;;;;;20.45;31.23;98274.88;5491015;26;946;-76
2024/04/09 01:42:11;;;;;;;;;;;;;;;20.44;30.86;98265.59;5431473;26;958;-76
2024/04/09 01:44:37;;;;;;;;;;;;;;;20.60;30.75;98259.28;5460985;26;942;-76
2024/04/09 01:47:05;;;;;;;;;;;;;;;20.51;31.07;98250.56;5460694;26;1822;-76
2024/04/09 01:49:31;;;;;;;;;;;;;;;20.69;31.01;98253.09;5461677;26;939;-76
2024/04/09 01:51:56;;;;;;;;;;;;;;;20.78;30.76;98254.13;5491460;26;965;-76
2024/04/09 01:54:22;;;;;;;;;;;;;;;21.03;30.57;98255.63;5460744;26;1921;-76
2024/04/09 01:56:48;;;;;;;;;;;;;;;20.94;30.71;98258.25;5491865;26;931;-76
2024/04/09 01:59:14;;;;;;;;;;;;;;;20.59;31.03;98251.25;5423015;26;1490;-76
2024/04/09 02:01:42;;;;;;;;;;;;;;;20.68;31.01;98243.81;5393505;26;1289;-76
2024/04/09 02:04:07;;;;;;;;;;;;;;;20.41;31.36;98257.19;5393470;26;999;-76
2024/04/09 02:06:33;;;;;;;;;;;;;;;20.40;31.24;98249.94;5423603;26;1875;-76
2024/04/09 02:08:58;;;;;;;;;;;;;;;20.62;31.02;98256.81;5393800;26;983;-77
2024/04/09 02:11:28;;;;;;;;;;;;;;;20.58;31.25;98244.00;5423359;26;964;-76
2024/04/09 02:13:55;;;;;;;;;;;;;;;20.64;31.33;98248.72;5394934;26;983;-76
2024/04/09 02:16:21;;;;;;;;;;;;;;;20.93;30.80;98248.16;5423430;26;1001;-76
2024/04/09 02:18:47;;;;;;;;;;;;;;;20.95;30.76;98252.16;5423323;26;1008;-76
2024/04/09 02:21:12;;;;;;;;;;;;;;;20.69;30.96;98245.41;5423333;26;1032;-76
2024/04/09 02:23:42;;;;;;;;;;;;;;;20.88;30.46;98251.50;5393470;26;1024;-76
2024/04/09 02:26:09;;;;;;;;;;;;;;;20.40;31.08;98242.25;5423116;26;1284;-77
2024/04/09 02:28:34;;;;;;;;;;;;;;;20.70;30.44;98238.50;5352149;26;1822;-77
2024/04/09 02:31:00;;;;;;;;;;;;;;;20.63;30.76;98243.50;5409817;26;1002;-76
2024/04/09 02:33:26;;;;;;;;;;;;;;;20.64;30.66;98243.06;5452794;26;1017;-76
2024/04/09 02:35:54;;;;;;;;;;;;;;;20.79;30.65;98243.59;5453113;26;1026;-76
2024/04/09 02:38:20;;;;;;;;;;;;;;;20.83;30.67;98243.50;5386983;26;1303;-76
2024/04/09 02:40:46;;;;;;;;;;;;;;;20.99;30.38;98241.59;5416799;26;1059;-76
2024/04/09 02:43:11;;;;;;;;;;;;;;;21.00;30.32;98250.88;5387133;26;938;-76
2024/04/09 02:45:37;;;;;;;;;;;;;;;20.96;30.20;98247.31;5416896;26;979;-76
2024/04/09 02:48:03;;;;;;;;;;;;;;;20.50;30.83;98246.16;5387082;26;1826;-76
2024/04/09 02:50:28;;;;;;;;;;;;;;;20.67;30.53;98242.19;5416697;26;1029;-76
2024/04/09 02:52:54;;;;;;;;;;;;;;;20.64;30.40;98240.25;5385725;26;1020;-76
2024/04/09 02:55:20;;;;;;;;;;;;;;;20.41;31.01;98245.88;5387222;26;979;-76
2024/04/09 02:57:48;;;;;;;;;;;;;;;20.54;30.79;98239.22;5386859;26;1208;-76
2024/04/09 03:00:20;;;;;;;;;;;;;;;19.94;31.58;98251.50;5416702;26;1101;-75
2024/04/09 03:02:50;;;;;;;;;;;;;;;20.43;31.19;98244.22;5359353;26;1133;-76
2024/04/09 03:05:16;;;;;;;;;;;;;;;20.71;30.64;98251.41;5370221;26;1032;-76
2024/04/09 03:07:42;;;;;;;;;;;;;;;20.85;30.58;98263.69;5386755;26;1831;-76
2024/04/09 03:10:10;;;;;;;;;;;;;;;20.94;30.35;98255.44;5386228;26;1191;-76
2024/04/09 03:12:35;;;;;;;;;;;;;;;20.57;30.91;98260.16;5393369;26;1066;-76
2024/04/09 03:15:01;;;;;;;;;;;;;;;20.42;31.17;98268.09;5452426;26;1271;-76
2024/04/09 03:17:26;;;;;;;;;;;;;;;20.46;30.65;98259.53;5452372;26;1031;-76
2024/04/09 03:19:52;;;;;;;;;;;;;;;19.98;31.86;98264.34;5452297;26;1014;-76
2024/04/09 03:22:18;;;;;;;;;;;;;;;20.61;30.36;98272.19;5422195;26;942;-76
2024/04/09 03:24:46;;;;;;;;;;;;;;;20.79;30.41;98266.22;5451872;26;924;-75
2024/04/09 03:27:12;;;;;;;;;;;;;;;20.56;30.59;98269.88;5392281;26;1819;-75
2024/04/09 03:29:37;;;;;;;;;;;;;;;20.45;30.92;98274.88;5422288;26;1067;-75
2024/04/09 03:32:03;;;;;;;;;;;;;;;20.68;30.39;98272.09;5392159;26;1226;-75
2024/04/09 03:34:28;;;;;;;;;;;;;;;20.84;30.23;98276.25;5391910;26;984;-75
2024/04/09 03:36:54;;;;;;;;;;;;;;;20.93;30.02;98276.44;5421737;26;1292;-75
2024/04/09 03:39:20;;;;;;;;;;;;;;;20.54;31.00;98283.66;5427651;26;2655;-75
2024/04/09 03:41:45;;;;;;;;;;;;;;;20.78;30.27;98282.41;5420687;26;2356;-75
2024/04/09 03:44:11;;;;;;;;;;;;;;;20.72;30.17;98277.66;5451714;26;1088;-75
2024/04/09 03:46:36;;;;;;;;;;;;;;;20.33;30.56;98284.00;5421588;26;1814;-75
2024/04/09 03:49:03;;;;;;;;;;;;;;;20.37;30.57;98285.53;5421553;26;967;-75
2024/04/09 03:51:29;;;;;;;;;;;;;;;20.63;30.46;98286.72;5415559;26;989;-75
2024/04/09 03:53:55;;;;;;;;;;;;;;;20.68;30.52;98280.56;5386498;26;988;-75
2024/04/09 03:56:21;;;;;;;;;;;;;;;20.79;30.44;98284.00;5421152;26;2112;-75
2024/04/09 03:58:47;;;;;;;;;;;;;;;20.79;30.44;98281.16;5421659;26;1628;-75
2024/04/09 04:01:13;;;;;;;;;;;;;;;20.90;30.08;98286.59;5418866;26;1581;-75
2024/04/09 04:03:42;;;;;;;;;;;;;;;20.78;30.34;98288.06;5452407;26;2009;-77
2024/04/09 04:06:07;;;;;;;;;;;;;;;20.59;30.26;98296.50;5425053;26;1128;-75
2024/04/09 04:08:33;;;;;;;;;;;;;;;20.46;30.53;98296.25;5366035;26;1825;-76
2024/04/09 04:10:59;;;;;;;;;;;;;;;20.19;31.00;98285.81;5387438;26;2089;-76
2024/04/09 04:13:25;;;;;;;;;;;;;;;20.23;31.05;98300.69;5410589;26;2011;-76
2024/04/09 04:16:18;;;;;;;;;;;;;;;20.29;31.02;98296.13;5455031;26;903;-76
2024/04/09 04:18:46;;;;;;;;;;;;;;;20.47;30.85;98295.09;5314166;27;1040;-76
2024/04/09 04:21:18;;;;;;;;;;;;;;;20.81;30.33;98298.47;5293835;26;1048;-76
2024/04/09 04:23:44;;;;;;;;;;;;;;;20.91;30.38;98301.53;5285507;27;941;-76
2024/04/09 04:26:11;;;;;;;;;;;;;;;20.89;30.43;98304.03;5285695;27;958;-76
2024/04/09 04:28:37;;;;;;;;;;;;;;;20.81;30.16;98306.97;5257091;27;1834;-77
2024/04/09 04:31:06;;;;;;;;;;;;;;;20.38;31.03;98300.44;5313889;27;960;-76
2024/04/09 04:33:32;;;;;;;;;;;;;;;20.39;31.02;98304.88;5285103;27;1214;-76
2024/04/09 04:35:57;;;;;;;;;;;;;;;20.48;30.78;98302.34;5313768;27;945;-76
2024/04/09 04:38:23;;;;;;;;;;;;;;;20.37;30.92;98313.00;5338819;26;947;-76
2024/04/09 04:40:49;;;;;;;;;;;;;;;20.24;31.39;98316.41;5325342;26;959;-75
2024/04/09 04:43:15;;;;;;;;;;;;;;;20.74;30.69;98309.94;5354260;26;910;-76
2024/04/09 04:45:41;;;;;;;;;;;;;;;20.78;30.60;98307.84;5325767;26;903;-76
2024/04/09 04:48:07;;;;;;;;;;;;;;;21.00;30.23;98308.22;5353849;26;1833;-76
2024/04/09 04:50:32;;;;;;;;;;;;;;;20.91;30.48;98307.19;5354331;26;941;-76
2024/04/09 04:52:58;;;;;;;;;;;;;;;20.79;30.75;98305.81;5325027;26;1243;-75
2024/04/09 04:55:23;;;;;;;;;;;;;;;20.37;31.25;98305.31;5341433;26;920;-75
2024/04/09 04:57:49;;;;;;;;;;;;;;;20.41;31.09;98299.56;5456233;26;954;-76
2024/04/09 05:00:14;;;;;;;;;;;;;;;20.85;30.38;98314.59;5426087;26;1141;-77
2024/04/09 05:02:40;;;;;;;;;;;;;;;20.56;30.76;98309.44;5425920;26;1232;-76
2024/04/09 05:05:06;;;;;;;;;;;;;;;20.52;30.82;98309.53;5423339;26;1335;-76
2024/04/09 05:07:32;;;;;;;;;;;;;;;20.68;30.66;98300.34;5424699;26;1853;-76
2024/04/09 05:09:58;;;;;;;;;;;;;;;20.71;30.70;98310.00;5383221;26;1004;-76
2024/04/09 05:12:23;;;;;;;;;;;;;;;20.01;31.97;98305.09;5373001;26;992;-76
2024/04/09 05:14:49;;;;;;;;;;;;;;;20.48;30.99;98307.97;5352632;26;1149;-76
2024/04/09 05:17:14;;;;;;;;;;;;;;;20.56;31.12;98298.13;5383130;26;902;-76
2024/04/09 05:19:40;;;;;;;;;;;;;;;20.35;31.66;98301.31;5382868;26;931;-76
2024/04/09 05:22:05;;;;;;;;;;;;;;;20.82;31.12;98296.44;5353902;26;1203;-76
2024/04/09 05:24:33;;;;;;;;;;;;;;;20.88;30.80;98302.41;5353485;26;1035;-76
2024/04/09 05:26:59;;;;;;;;;;;;;;;21.00;30.74;98296.13;5382528;26;1858;-76
2024/04/09 05:29:24;;;;;;;;;;;;;;;20.60;31.52;98303.72;5348741;26;1126;-76
2024/04/09 05:31:50;;;;;;;;;;;;;;;20.79;30.79;98289.63;5353159;26;1894;-76
2024/04/09 05:34:16;;;;;;;;;;;;;;;20.63;30.92;98298.03;5353177;26;1306;-76
2024/04/09 05:36:41;;;;;;;;;;;;;;;20.67;30.85;98303.59;5405470;26;1182;-76
2024/04/09 05:39:08;;;;;;;;;;;;;;;20.45;31.09;98298.28;5394451;26;1116;-76
2024/04/09 05:41:33;;;;;;;;;;;;;;;20.27;31.33;98297.81;5382472;26;1024;-76
2024/04/09 05:43:59;;;;;;;;;;;;;;;20.66;31.09;98297.16;5382477;26;1090;-76
2024/04/09 05:46:24;;;;;;;;;;;;;;;20.51;31.31;98295.81;5353951;26;1829;-75
2024/04/09 05:48:50;;;;;;;;;;;;;;;20.51;31.28;98301.44;5388306;26;1115;-76
2024/04/09 05:51:15;;;;;;;;;;;;;;;20.56;31.65;98298.13;5388538;26;922;-76
2024/04/09 05:53:41;;;;;;;;;;;;;;;20.74;31.40;98301.44;5388148;26;1181;-76
2024/04/09 05:56:06;;;;;;;;;;;;;;;20.73;31.26;98311.19;5388249;26;990;-76
2024/04/09 05:58:32;;;;;;;;;;;;;;;20.87;31.18;98306.47;5388075;26;1133;-76
2024/04/09 06:00:58;;;;;;;;;;;;;;;20.61;31.39;98314.59;5388150;26;991;-76
2024/04/09 06:03:23;;;;;;;;;;;;;;;20.96;30.69;98309.53;5417674;26;1116;-76
2024/04/09 06:05:51;;;;;;;;;;;;;;;20.40;31.80;98312.13;5403806;26;1562;-75
2024/04/09 06:08:17;;;;;;;;;;;;;;;20.62;31.43;98319.03;5424292;26;1826;-75
2024/04/09 06:10:43;;;;;;;;;;;;;;;20.25;31.66;98312.34;5393953;26;997;-76
2024/04/09 06:13:10;;;;;;;;;;;;;;;20.33;31.87;98312.25;5453853;26;924;-76
2024/04/09 06:15:35;;;;;;;;;;;;;;;20.51;31.40;98313.56;5453436;26;932;-76
2024/04/09 06:18:01;;;;;;;;;;;;;;;20.43;31.70;98311.28;5453644;26;989;-76
2024/04/09 06:20:26;;;;;;;;;;;;;;;20.69;31.56;98324.56;5437321;26;953;-76
2024/04/09 06:22:52;;;;;;;;;;;;;;;20.80;31.40;98315.88;5453388;26;923;-76
2024/04/09 06:25:17;;;;;;;;;;;;;;;20.90;31.25;98322.59;5425096;26;1708;-76
2024/04/09 06:27:43;;;;;;;;;;;;;;;20.46;31.88;98321.69;5447405;26;1829;-76
2024/04/09 06:30:08;;;;;;;;;;;;;;;20.84;31.07;98324.31;5466184;26;1583;-75
2024/04/09 06:32:34;;;;;;;;;;;;;;;20.93;31.12;98327.34;5483343;26;1335;-76
2024/04/09 06:35:00;;;;;;;;;;;;;;;20.69;31.45;98321.75;5453349;26;1524;-76
2024/04/09 06:37:25;;;;;;;;;;;;;;;20.96;30.94;98318.03;5452259;26;1015;-76
2024/04/09 06:39:51;;;;;;;;;;;;;;;20.62;31.24;98324.69;5453876;26;889;-76
2024/04/09 06:42:16;;;;;;;;;;;;;;;20.03;32.41;98311.88;5441841;26;1894;-76
2024/04/09 06:44:42;;;;;;;;;;;;;;;20.54;31.38;98320.41;5417218;26;1030;-76
2024/04/09 06:47:08;;;;;;;;;;;;;;;20.64;31.49;98322.25;5317352;26;1838;-75
2024/04/09 06:49:34;;;;;;;;;;;;;;;20.43;31.88;98319.75;5346700;26;1098;-76
2024/04/09 06:52:08;;;;;;;;;;;;;;;20.56;31.64;98332.06;5317767;26;927;-76
2024/04/09 06:54:34;;;;;;;;;;;;;;;20.43;31.85;98329.03;5358634;26;1242;-75
2024/04/09 06:57:00;;;;;;;;;;;;;;;20.57;32.04;98325.16;5377035;26;956;-76
2024/04/09 06:59:25;;;;;;;;;;;;;;;20.77;31.73;98325.22;5346931;26;1015;-76
2024/04/09 07:01:51;;;;;;;;;;;;;;;20.93;31.49;98327.34;5346674;26;980;-76
2024/04/09 07:04:17;;;;;;;;;;;;;;;20.99;31.21;98334.13;5317200;26;1157;-76
2024/04/09 07:06:43;;;;;;;;;;;;;;;20.78;31.42;98335.34;5316004;26;2035;-76
2024/04/09 07:09:09;;;;;;;;;;;;;;;20.87;31.17;98332.72;5311451;27;2115;-76
2024/04/09 07:11:34;;;;;;;;;;;;;;;20.51;31.76;98324.06;5343647;26;1685;-76
2024/04/09 07:14:00;;;;;;;;;;;;;;;20.61;31.46;98334.41;5344655;26;1071;-76
2024/04/09 07:16:25;;;;;;;;;;;;;;;20.60;31.46;98327.16;5294795;26;956;-76
2024/04/09 07:18:51;;;;;;;;;;;;;;;20.19;32.42;98324.56;5440029;26;980;-76
2024/04/09 07:21:17;;;;;;;;;;;;;;;20.52;31.75;98334.13;5387061;26;1280;-76
2024/04/09 07:23:43;;;;;;;;;;;;;;;20.23;32.23;98331.75;5290749;26;1700;-76
2024/04/09 07:26:08;;;;;;;;;;;;;;;20.10;32.40;98330.75;5352022;26;902;-75
2024/04/09 07:28:34;;;;;;;;;;;;;;;20.46;31.92;98321.69;5350570;26;1855;-76
2024/04/09 07:31:05;;;;;;;;;;;;;;;19.94;32.73;98324.94;5381152;26;957;-76
2024/04/09 07:33:31;;;;;;;;;;;;;;;20.28;32.06;98317.16;5381113;26;1023;-76
2024/04/09 07:35:57;;;;;;;;;;;;;;;19.92;32.93;98322.56;5381169;26;929;-76
2024/04/09 07:38:22;;;;;;;;;;;;;;;20.42;32.25;98320.97;5351027;26;966;-76
2024/04/09 07:40:48;;;;;;;;;;;;;;;20.65;32.30;98329.47;5350825;26;1859;-76
2024/04/09 07:43:13;;;;;;;;;;;;;;;20.99;31.68;98320.00;5351822;26;874;-76
2024/04/09 07:45:39;;;;;;;;;;;;;;;20.73;31.86;98327.34;5351798;26;962;-76
2024/04/09 07:48:05;;;;;;;;;;;;;;;20.81;31.66;98323.94;5380629;26;1849;-77
2024/04/09 07:50:31;;;;;;;;;;;;;;;20.41;32.01;98314.50;5380305;26;1023;-76
2024/04/09 07:52:57;;;;;;;;;;;;;;;20.40;32.16;98327.03;5405367;26;946;-76
2024/04/09 07:55:22;;;;;;;;;;;;;;;20.82;31.34;98316.25;5475901;26;1706;-76
2024/04/09 07:57:48;;;;;;;;;;;;;;;20.87;31.12;98323.44;5454957;26;976;-75
2024/04/09 08:00:14;;;;;;;;;;;;;;;20.73;31.36;98322.47;5453269;26;996;-76
2024/04/09 08:02:43;;;;;;;;;;;;;;;20.42;31.85;98321.78;5453412;26;1031;-76
2024/04/09 08:05:09;;;;;;;;;;;;;;;20.49;31.66;98315.22;5453239;26;925;-76
2024/04/09 08:07:38;;;;;;;;;;;;;;;20.79;31.04;98317.91;5453228;26;1838;-76
2024/04/09 08:10:09;;;;;;;;;;;;;;;20.37;32.02;98318.66;5456916;26;1898;-76
2024/04/09 08:12:35;;;;;;;;;;;;;;;20.20;32.20;98326.97;5489773;26;843;-76
2024/04/09 08:15:02;;;;;;;;;;;;;;;20.22;32.15;98324.53;5491095;26;898;-76
2024/04/09 08:17:27;;;;;;;;;;;;;;;20.79;31.84;98312.25;5491741;26;949;-76
2024/04/09 08:19:54;;;;;;;;;;;;;;;20.93;31.52;98310.38;5489041;26;1019;-75
2024/04/09 08:22:20;;;;;;;;;;;;;;;20.99;31.41;98308.69;5489808;26;971;-76
2024/04/09 08:24:45;;;;;;;;;;;;;;;20.85;31.56;98317.44;5489042;26;1568;-76
2024/04/09 08:27:11;;;;;;;;;;;;;;;20.53;32.10;98313.94;5490858;26;1821;-76
2024/04/09 08:29:37;;;;;;;;;;;;;;;20.62;31.71;98313.38;5490930;26;1127;-75
2024/04/09 08:32:03;;;;;;;;;;;;;;;20.53;31.49;98311.13;5490579;26;1333;-76
2024/04/09 08:34:28;;;;;;;;;;;;;;;20.65;31.43;98306.88;5491031;26;897;-76
2024/04/09 08:36:54;;;;;;;;;;;;;;;20.39;31.93;98316.97;5490918;26;960;-76
2024/04/09 08:39:20;;;;;;;;;;;;;;;20.54;31.71;98300.59;5489717;26;1939;-76
2024/04/09 08:41:45;;;;;;;;;;;;;;;20.55;31.48;98300.16;5451742;26;1282;-76
2024/04/09 08:44:11;;;;;;;;;;;;;;;20.10;32.33;98302.50;5454671;26;1013;-76
2024/04/09 08:46:36;;;;;;;;;;;;;;;19.91;32.76;98303.22;5414836;26;1985;-76
2024/04/09 08:49:02;;;;;;;;;;;;;;;20.49;32.28;98303.94;5415381;26;997;-76
2024/04/09 08:51:28;;;;;;;;;;;;;;;20.80;31.95;98285.56;5347007;26;987;-75
2024/04/09 08:53:53;;;;;;;;;;;;;;;20.95;31.41;98297.41;5319169;26;978;-76
2024/04/09 08:56:19;;;;;;;;;;;;;;;20.74;31.80;98292.97;5347259;26;1861;-76
2024/04/09 08:58:45;;;;;;;;;;;;;;;21.03;31.28;98298.06;5319119;26;1010;-76
2024/04/09 09:01:29;;;;;;;;;;;;;;;20.71;31.72;98296.66;5348202;26;1133;-76
2024/04/09 09:03:55;;;;;;;;;;;;;;;20.88;31.28;98296.75;5319001;26;1214;-76
2024/04/09 09:06:20;;;;;;;;;;;;;;;20.36;32.28;98300.88;5291064;26;1857;-76
2024/04/09 09:08:46;;;;;;;;;;;;;;;20.59;31.60;98302.16;5347809;26;1073;-75
2024/04/09 09:11:19;;;;;;;;;;;;;;;20.64;31.53;98291.13;5278513;27;1778;-76
2024/04/09 09:13:45;;;;;;;;;;;;;;;20.57;31.60;98294.06;5279054;27;972;-76
2024/04/09 09:16:10;;;;;;;;;;;;;;;20.40;32.01;98286.69;5251145;27;966;-75
2024/04/09 09:18:36;;;;;;;;;;;;;;;20.51;31.89;98290.16;5307568;26;1980;-76
2024/04/09 09:21:02;;;;;;;;;;;;;;;20.18;32.31;98287.03;5313235;27;1044;-75
2024/04/09 09:23:27;;;;;;;;;;;;;;;20.27;32.29;98280.84;5346692;26;962;-76
2024/04/09 09:25:54;;;;;;;;;;;;;;;20.48;32.33;98280.50;5353475;26;1157;-76
2024/04/09 09:28:25;;;;;;;;;;;;;;;20.75;31.95;98282.44;5382786;26;1826;-76
2024/04/09 09:30:53;;;;;;;;;;;;;;;20.94;31.58;98284.53;5414421;26;2154;-76
2024/04/09 09:33:19;;;;;;;;;;;;;;;20.64;32.05;98277.00;5359608;26;981;-76
2024/04/09 09:35:48;;;;;;;;;;;;;;;20.71;31.83;98265.53;5359461;26;1015;-75
2024/04/09 09:38:17;;;;;;;;;;;;;;;20.90;31.39;98268.84;5388456;26;1123;-76
2024/04/09 09:40:44;;;;;;;;;;;;;;;20.62;31.88;98262.47;5418104;26;1016;-76
2024/04/09 09:43:10;;;;;;;;;;;;;;;20.63;31.79;98266.94;5480278;26;998;-76
2024/04/09 09:45:35;;;;;;;;;;;;;;;20.62;31.92;98262.47;5492161;26;1965;-77
2024/04/09 09:48:01;;;;;;;;;;;;;;;20.48;32.16;98262.75;5491901;26;1825;-76
2024/04/09 09:50:27;;;;;;;;;;;;;;;20.51;31.98;98265.50;5492095;26;880;-76
2024/04/09 09:52:52;;;;;;;;;;;;;;;20.67;31.54;98255.53;5492540;26;1789;-76
2024/04/09 09:55:18;;;;;;;;;;;;;;;20.51;31.83;98261.88;5491794;26;956;-76
2024/04/09 09:57:44;;;;;;;;;;;;;;;20.47;31.97;98255.50;5491534;26;924;-76
2024/04/09 10:00:10;;;;;;;;;;;;;;;20.52;31.70;98263.47;5461536;26;1859;-76
2024/04/09 10:02:36;;;;;;;;;;;;;;;20.38;32.09;98260.88;5456000;26;905;-76
2024/04/09 10:05:02;;;;;;;;;;;;;;;20.66;31.66;98251.91;5463425;26;1854;-76
2024/04/09 10:07:27;;;;;;;;;;;;;;;20.68;32.01;98249.47;5424866;26;1837;-76
2024/04/09 10:09:53;;;;;;;;;;;;;;;20.97;31.75;98255.34;5454494;26;1889;-76
2024/04/09 10:12:19;;;;;;;;;;;;;;;20.83;32.06;98254.81;5417418;26;911;-76
2024/04/09 10:14:44;;;;;;;;;;;;;;;21.00;31.73;98253.69;5387997;26;966;-77
2024/04/09 10:17:13;;;;;;;;;;;;;;;20.84;31.79;98248.75;5417618;26;961;-76
2024/04/09 10:19:40;;;;;;;;;;;;;;;20.69;31.84;98242.56;5412124;26;2012;-76
2024/04/09 10:22:06;;;;;;;;;;;;;;;20.68;31.87;98248.66;5423423;26;2396;-76
2024/04/09 10:24:34;;;;;;;;;;;;;;;21.03;31.13;98258.47;5453361;26;948;-76
2024/04/09 10:26:59;;;;;;;;;;;;;;;20.69;31.56;98251.06;5453567;26;1849;-76
2024/04/09 10:29:25;;;;;;;;;;;;;;;20.24;32.40;98248.59;5393424;26;971;-77
2024/04/09 10:31:50;;;;;;;;;;;;;;;20.40;32.08;98238.63;5453653;26;915;-76
2024/04/09 10:34:22;;;;;;;;;;;;;;;20.26;32.27;98229.19;5452422;26;1628;-76
2024/04/09 10:36:48;;;;;;;;;;;;;;;20.53;32.01;98231.16;5453324;26;1010;-76
2024/04/09 10:39:14;;;;;;;;;;;;;;;20.40;31.98;98227.34;5423150;26;959;-76
2024/04/09 10:41:40;;;;;;;;;;;;;;;20.45;32.17;98227.63;5423228;26;954;-76
2024/04/09 10:44:08;;;;;;;;;;;;;;;20.50;31.94;98232.03;5448310;26;1655;-76
2024/04/09 10:46:34;;;;;;;;;;;;;;;20.44;32.08;98230.91;5454324;26;1821;-76
2024/04/09 10:48:59;;;;;;;;;;;;;;;20.64;31.68;98214.81;5423567;26;864;-76
2024/04/09 10:51:25;;;;;;;;;;;;;;;20.77;31.63;98224.22;5454253;26;888;-76
2024/04/09 10:53:50;;;;;;;;;;;;;;;20.73;32.22;98212.19;5436009;26;1928;-76
2024/04/09 10:56:16;;;;;;;;;;;;;;;20.88;32.19;98214.72;5453140;26;1002;-76
2024/04/09 10:58:41;;;;;;;;;;;;;;;20.98;31.97;98193.91;5453012;26;1025;-76
2024/04/09 11:01:07;;;;;;;;;;;;;;;20.97;32.08;98209.28;5452994;26;997;-76
2024/04/09 11:03:33;;;;;;;;;;;;;;;20.72;32.40;98199.28;5452978;26;947;-77
2024/04/09 11:09:24;;;;;;;;;;;;;;;20.28;32.93;98192.81;5451674;26;1806;-76
2024/04/09 11:15:11;;;;;;;;;;;;;;;20.60;32.03;98188.63;5452525;26;974;-76
2024/04/09 11:17:37;;;;;;;;;;;;;;;20.85;31.58;98187.31;5422610;26;948;-76
2024/04/09 11:20:14;;;;;;;;;;;;;;;20.28;32.32;98187.16;5420698;26;1952;-76
2024/04/09 11:22:43;;;;;;;;;;;;;;;20.53;32.09;98180.28;5452591;26;959;-76
2024/04/09 11:25:12;;;;;;;;;;;;;;;20.22;32.78;98171.16;5439284;26;969;-76
2024/04/09 11:27:41;;;;;;;;;;;;;;;20.58;32.05;98164.84;5453760;26;1934;-76
2024/04/09 11:30:11;;;;;;;;;;;;;;;20.59;31.88;98157.97;5453741;26;923;-76
2024/04/09 11:32:37;;;;;;;;;;;;;;;20.53;32.09;98157.69;5424721;26;1128;-77
2024/04/09 11:35:02;;;;;;;;;;;;;;;20.46;32.26;98160.59;5453765;26;949;-77
2024/04/09 11:37:28;;;;;;;;;;;;;;;20.61;31.97;98142.16;5453853;26;989;-76
2024/04/09 11:39:53;;;;;;;;;;;;;;;20.40;33.11;98159.50;5423714;26;1206;-76
2024/04/09 11:42:19;;;;;;;;;;;;;;;20.95;32.23;98156.00;5455090;26;1764;-76
2024/04/09 11:44:45;;;;;;;;;;;;;;;21.13;32.03;98163.28;5453597;26;1668;-76
2024/04/09 11:47:10;;;;;;;;;;;;;;;21.07;32.03;98152.47;5453502;26;1828;-76
2024/04/09 11:49:36;;;;;;;;;;;;;;;21.01;32.36;98153.44;5455337;26;1885;-76
2024/04/09 11:52:02;;;;;;;;;;;;;;;20.57;32.89;98146.28;5453306;26;1671;-76
2024/04/09 11:54:27;;;;;;;;;;;;;;;20.92;32.05;98145.53;5394028;26;1646;-76
2024/04/09 11:56:53;;;;;;;;;;;;;;;20.44;32.83;98137.63;5455160;26;944;-76
2024/04/09 11:59:19;;;;;;;;;;;;;;;20.71;32.44;98141.13;5453158;26;1148;-76
2024/04/09 12:01:44;;;;;;;;;;;;;;;20.94;31.89;98130.97;5431565;26;1116;-76
2024/04/09 12:04:10;;;;;;;;;;;;;;;20.79;32.10;98119.97;5457799;26;1005;-76
2024/04/09 12:06:35;;;;;;;;;;;;;;;20.32;32.92;98129.81;5427485;26;1832;-76
2024/04/09 12:09:01;;;;;;;;;;;;;;;20.50;32.44;98113.31;5427669;26;1060;-76
2024/04/09 12:11:27;;;;;;;;;;;;;;;20.52;32.76;98124.97;5488418;26;963;-76
2024/04/09 12:13:52;;;;;;;;;;;;;;;20.30;32.88;98122.53;5427405;26;1688;-76
2024/04/09 12:16:18;;;;;;;;;;;;;;;20.26;32.77;98118.19;5456306;26;2114;-75
2024/04/09 12:18:43;;;;;;;;;;;;;;;20.59;32.45;98116.34;5398200;26;1623;-76
2024/04/09 12:21:09;;;;;;;;;;;;;;;20.14;32.94;98118.81;5488248;26;986;-76
2024/04/09 12:23:34;;;;;;;;;;;;;;;20.50;32.36;98110.47;5487974;26;930;-77
2024/04/09 12:26:00;;;;;;;;;;;;;;;20.56;32.29;98105.91;5459885;26;1881;-77
2024/04/09 12:28:25;;;;;;;;;;;;;;;20.70;32.23;98110.47;5353979;26;1825;-76
2024/04/09 12:30:51;;;;;;;;;;;;;;;20.54;32.33;98103.53;5354523;26;1294;-77
2024/04/09 12:33:19;;;;;;;;;;;;;;;20.62;32.20;98101.31;5321252;26;1266;-76
2024/04/09 12:35:44;;;;;;;;;;;;;;;20.73;32.09;98104.75;5387450;26;1997;-77
2024/04/09 12:38:10;;;;;;;;;;;;;;;20.58;32.53;98097.00;5389593;26;932;-76
2024/04/09 12:40:35;;;;;;;;;;;;;;;20.47;33.33;98094.41;5389483;26;985;-76
2024/04/09 12:43:02;;;;;;;;;;;;;;;20.95;32.71;98101.44;5359707;26;973;-76
2024/04/09 12:45:27;;;;;;;;;;;;;;;20.96;32.53;98091.72;5331489;26;904;-76
2024/04/09 12:47:53;;;;;;;;;;;;;;;20.79;32.54;98086.03;5388746;26;1849;-76
2024/04/09 12:50:19;;;;;;;;;;;;;;;20.87;32.53;98092.31;5358460;26;2145;-76
2024/04/09 12:52:45;;;;;;;;;;;;;;;20.89;32.25;98083.41;5372377;26;1962;-76
2024/04/09 12:55:11;;;;;;;;;;;;;;;20.64;32.24;98079.09;5326712;26;2124;-76
2024/04/09 12:57:37;;;;;;;;;;;;;;;20.20;33.21;98078.31;5375350;26;1680;-75
2024/04/09 13:00:08;;;;;;;;;;;;;;;20.34;32.95;98076.47;5428728;26;1147;-76
2024/04/09 13:02:33;;;;;;;;;;;;;;;20.69;32.37;98080.59;5455780;26;1721;-77